Pagrindinis puslapis
METAR-TAF:

METAR-TAF

Oro uostai :

Diego Garsija, Indijos Vandenyno Britų Sritis

platuma: 07-18S, ilguma: 072-24E, Aukštis: 1 m

Dabartinis oras

Ataskaita buvo paskelbta 12 minutes, ne 21:55 UTC
Vėjas 7 kt iš Rytų/Šiaurės Rytų
Temperatūra 28°C
Drėgmė 84%
Slėgis 1010 hPa
Matomumas 10 km arba daugiau
Mažai debesys ne aukštis 2000 ft
Išsisklaidę debesys ne aukštis 8000 ft
Su prošvaistėmis ne aukštis 25000 ft

METAR: FJDG 122155Z 07007KT 9999 FEW020 SCT080 BKN250 28/25 A2982 RMK SLP095 T02770254

Laikas: 04:07 (22:07 UTC)

Prognozė

Ataskaita buvo paskelbta 5 valandos ir 7 minutes, ne 17:00 UTC
Prognozė galioja nuo 12 metu 17 UTC su 13 metu 23 UTC
Vėjas 5 kt nuo kintamojo kryptimis
Matomumas 10 km arba daugiau
Mažai debesys ne aukštis 2000 ft
Su prošvaistėmis ne aukštis 22000 ft
Laikinai
nuo 12 metu 17 UTC su 13 metu 03 UTC
Vėjas 10 kt iš Rytų
Matomumas: 9000 m
Su prošvaistėmis ne aukštis 2500 ft
lietus

TAF: FJDG 121700Z 1217/1323 VRB05KT 9999 FEW020 BKN220 QNH2982INS TEMPO 1217/1303 10010KT 9000 -SHRA BKN025 TX32/1309Z TN25/1300Z

Orai ataskaitas ir orų prognozės (METAR, TAF).

turimą stotys yra geltonos ir raudonos taškus žemėlapyje.

Perkelti pele per norėdami pamatyti stoties vardą.

Tada spustelėkite, norėdami matyti oro stebėjimo ir prognozės.

Norėdami pakeisti žemėlapį: spustelėkite ant žalios mygtukų su juodo kryžiaus žemyn,; žalią mygtuką su brūkšneliu, jei norite nutolinti; arba žalių rodyklių gretimoms žemėlapius.


METAR-TAF: